Time;durP1;ratioP1;P1;durP2;ratioP2;P2;SDS_P1;SDS_P2;PMS_P1;PMS_P2;Temp;Humidity;BMP_temperature;BMP_pressure;BME280_temperature;BME280_humidity;BME280_pressure;Samples;Min_cycle;Max_cycle;Signal;HPM_P1;HPM_P2
2022/12/22 03:26:37;;;;;;;188.98;45.88;;;;;;;;;;5098509;28;20052;-67
2022/12/22 03:29:04;;;;;;;178.80;45.22;;;;;;;;;;5096032;28;20053;-67
2022/12/22 03:31:30;;;;;;;228.30;49.25;;;;;;;;;;5078882;28;20092;-67
2022/12/22 03:33:56;;;;;;;203.05;49.70;;;;;;;;;;5099450;28;20143;-67
2022/12/22 03:36:22;;;;;;;226.98;49.42;;;;;;;;;;5097215;28;20040;-67
2022/12/22 03:38:48;;;;;;;227.68;51.50;;;;;;;;;;5078239;28;22216;-67
2022/12/22 03:46:44;;;;;;;409.02;62.33;;;;;;;;;;5097819;28;20176;-67
2022/12/22 03:49:10;;;;;;;436.95;64.95;;;;;;;;;;5099086;28;20394;-67
2022/12/22 03:51:41;;;;;;;480.75;66.25;;;;;;;;;;5077779;28;20032;-67
2022/12/22 03:54:08;;;;;;;431.42;63.97;;;;;;;;;;5079372;28;20525;-67
2022/12/22 03:56:35;;;;;;;331.45;59.20;;;;;;;;;;5081307;28;20044;-67
2022/12/22 03:59:01;;;;;;;301.35;57.35;;;;;;;;;;5097389;28;21453;-67
2022/12/22 04:01:27;;;;;;;332.10;57.60;;;;;;;;;;5096307;28;20516;-67
2022/12/22 04:03:53;;;;;;;324.58;56.65;;;;;;;;;;5096365;28;20040;-67
2022/12/22 04:06:19;;;;;;;343.17;58.85;;;;;;;;;;5096588;28;20050;-67
2022/12/22 04:08:46;;;;;;;329.48;58.88;;;;;;;;;;5078586;28;20051;-67
2022/12/22 04:13:58;;;;;;;363.13;59.25;;;;;;;;;;5094104;28;20051;-67
2022/12/22 04:16:24;;;;;;;376.08;60.17;;;;;;;;;;5096491;28;20045;-67
2022/12/22 04:18:50;;;;;;;298.77;53.92;;;;;;;;;;5094908;28;20053;-66
2022/12/22 04:21:16;;;;;;;377.85;58.63;;;;;;;;;;5091339;28;20139;-67
2022/12/22 04:23:42;;;;;;;474.33;62.85;;;;;;;;;;5095604;28;20051;-67
2022/12/22 04:26:08;;;;;;;439.63;56.80;;;;;;;;;;5096763;28;20054;-67
2022/12/22 04:28:34;;;;;;;419.50;56.53;;;;;;;;;;5099364;28;20094;-67
2022/12/22 04:31:01;;;;;;;554.80;63.03;;;;;;;;;;5095392;28;20421;-67
2022/12/22 04:33:27;;;;;;;268.80;50.40;;;;;;;;;;5100080;28;20044;-67
2022/12/22 04:35:53;;;;;;;426.48;62.30;;;;;;;;;;5094677;28;20332;-67
2022/12/22 04:38:19;;;;;;;328.17;57.47;;;;;;;;;;5096008;28;20036;-67
2022/12/22 04:40:45;;;;;;;396.60;56.75;;;;;;;;;;5099176;28;20122;-67
2022/12/22 04:43:11;;;;;;;413.20;60.85;;;;;;;;;;5097710;28;20047;-67
2022/12/22 04:45:38;;;;;;;600.33;70.22;;;;;;;;;;5078731;28;20048;-67
2022/12/22 04:48:04;;;;;;;459.15;62.78;;;;;;;;;;5096814;28;20382;-67
2022/12/22 04:50:30;;;;;;;388.13;61.40;;;;;;;;;;5098446;28;20052;-67
2022/12/22 04:52:56;;;;;;;355.98;56.10;;;;;;;;;;5099701;28;20054;-68
2022/12/22 04:55:22;;;;;;;411.15;58.42;;;;;;;;;;5087488;28;20130;-67
2022/12/22 04:57:48;;;;;;;622.60;64.70;;;;;;;;;;5081371;28;20124;-67
2022/12/22 05:00:15;;;;;;;1017.65;81.93;;;;;;;;;;5102702;28;20319;-67
2022/12/22 05:02:41;;;;;;;1208.85;82.05;;;;;;;;;;5080521;28;20086;-67
2022/12/22 05:05:08;;;;;;;780.75;58.17;;;;;;;;;;5100663;28;20047;-67
2022/12/22 05:07:34;;;;;;;1002.33;69.50;;;;;;;;;;5101949;28;20051;-67
2022/12/22 05:10:00;;;;;;;876.90;59.70;;;;;;;;;;5099212;28;20543;-66
2022/12/22 05:15:11;;;;;;;523.05;47.97;;;;;;;;;;5098706;28;20055;-67
2022/12/22 05:17:37;;;;;;;700.15;54.97;;;;;;;;;;5099365;28;20054;-67
2022/12/22 05:20:04;;;;;;;684.40;54.05;;;;;;;;;;5080169;28;20032;-67
2022/12/22 05:22:30;;;;;;;631.30;49.75;;;;;;;;;;5098545;28;20734;-67
2022/12/22 05:24:56;;;;;;;683.53;51.08;;;;;;;;;;5096684;28;20495;-67
2022/12/22 05:27:22;;;;;;;691.75;52.13;;;;;;;;;;5098842;28;20085;-67
2022/12/22 05:29:48;;;;;;;705.55;55.28;;;;;;;;;;5095772;28;20048;-67
2022/12/22 05:32:14;;;;;;;634.55;55.78;;;;;;;;;;5097010;28;20118;-67
2022/12/22 05:34:40;;;;;;;517.85;52.33;;;;;;;;;;5098934;28;20043;-67
2022/12/22 05:37:07;;;;;;;493.05;51.20;;;;;;;;;;5096380;28;20044;-67
2022/12/22 05:39:33;;;;;;;589.40;57.55;;;;;;;;;;5095884;28;20036;-67
2022/12/22 05:41:59;;;;;;;611.85;59.30;;;;;;;;;;5079357;28;20148;-67
2022/12/22 05:44:25;;;;;;;632.33;59.00;;;;;;;;;;5079606;28;20056;-67
2022/12/22 05:46:51;;;;;;;681.15;60.75;;;;;;;;;;5095500;28;20055;-67
2022/12/22 05:49:18;;;;;;;551.63;55.83;;;;;;;;;;5101721;28;20048;-67
2022/12/22 05:51:45;;;;;;;592.33;55.42;;;;;;;;;;5102408;28;20503;-68
2022/12/22 05:54:11;;;;;;;588.20;53.42;;;;;;;;;;5087221;28;20137;-67
2022/12/22 05:56:37;;;;;;;530.78;53.35;;;;;;;;;;5081752;28;21281;-67
2022/12/22 05:59:03;;;;;;;485.38;47.90;;;;;;;;;;5097380;28;20506;-67
2022/12/22 06:01:30;;;;;;;581.60;53.33;;;;;;;;;;5103825;28;20071;-67
2022/12/22 06:03:56;;;;;;;544.60;48.80;;;;;;;;;;5087646;28;20419;-67
2022/12/22 06:06:22;;;;;;;476.38;44.47;;;;;;;;;;5104527;28;20410;-67
2022/12/22 06:08:48;;;;;;;608.85;50.90;;;;;;;;;;5103327;28;20040;-68
2022/12/22 06:11:17;;;;;;;574.60;48.78;;;;;;;;;;5083541;28;20047;-67
2022/12/22 06:13:43;;;;;;;521.08;40.42;;;;;;;;;;5101888;28;20384;-67
2022/12/22 06:16:09;;;;;;;615.85;48.03;;;;;;;;;;5085289;28;20054;-67
2022/12/22 06:18:36;;;;;;;542.10;43.85;;;;;;;;;;5100969;28;20510;-67
2022/12/22 06:21:02;;;;;;;538.95;44.30;;;;;;;;;;5092713;27;20406;-67
2022/12/22 06:23:28;;;;;;;529.60;39.78;;;;;;;;;;5082519;28;20130;-67
2022/12/22 06:25:55;;;;;;;553.08;42.80;;;;;;;;;;5098510;28;20436;-66
2022/12/22 06:28:21;;;;;;;450.48;34.28;;;;;;;;;;5105466;28;20100;-67
2022/12/22 06:30:48;;;;;;;421.27;31.63;;;;;;;;;;5104322;28;20043;-67
2022/12/22 06:33:14;;;;;;;488.05;34.83;;;;;;;;;;5108240;28;20417;-67
2022/12/22 06:35:40;;;;;;;347.35;29.40;;;;;;;;;;5113782;28;20086;-67
2022/12/22 06:38:06;;;;;;;357.02;28.33;;;;;;;;;;5096312;28;20104;-67
2022/12/22 06:40:33;;;;;;;376.88;30.00;;;;;;;;;;5113966;28;20052;-67
2022/12/22 06:43:08;;;;;;;457.73;35.75;;;;;;;;;;5096075;28;20055;-66
2022/12/22 06:45:34;;;;;;;496.27;35.97;;;;;;;;;;5114735;28;20395;-67
2022/12/22 06:48:01;;;;;;;467.75;35.40;;;;;;;;;;5113917;28;20118;-67
2022/12/22 06:50:27;;;;;;;448.60;34.35;;;;;;;;;;5114413;28;20095;-66
2022/12/22 06:52:53;;;;;;;312.75;27.23;;;;;;;;;;5085984;28;20553;-67
2022/12/22 06:55:20;;;;;;;285.10;25.27;;;;;;;;;;5098302;28;20503;-67
2022/12/22 06:57:46;;;;;;;397.42;30.75;;;;;;;;;;5098774;28;20399;-67
2022/12/22 07:00:12;;;;;;;373.23;27.95;;;;;;;;;;5106561;28;20040;-67
2022/12/22 07:02:38;;;;;;;413.33;30.30;;;;;;;;;;5104911;28;20047;-67
2022/12/22 07:05:04;;;;;;;278.40;23.77;;;;;;;;;;5087864;28;20054;-67
2022/12/22 07:07:31;;;;;;;341.75;27.80;;;;;;;;;;5106182;28;20491;-67
2022/12/22 07:09:57;;;;;;;265.30;22.98;;;;;;;;;;5088233;28;20488;-67
2022/12/22 07:12:23;;;;;;;254.98;22.42;;;;;;;;;;5088352;28;20359;-66
2022/12/22 07:14:49;;;;;;;179.05;19.25;;;;;;;;;;5105596;28;20475;-66
2022/12/22 07:17:16;;;;;;;229.20;21.80;;;;;;;;;;5087212;28;20040;-66
2022/12/22 07:19:42;;;;;;;168.50;18.88;;;;;;;;;;5104938;28;20105;-67
2022/12/22 07:22:08;;;;;;;174.20;16.92;;;;;;;;;;5086508;28;20048;-67
2022/12/22 07:24:34;;;;;;;163.50;18.00;;;;;;;;;;5106761;28;20134;-66
2022/12/22 07:27:00;;;;;;;186.38;17.08;;;;;;;;;;5105202;28;20138;-67
2022/12/22 07:29:26;;;;;;;196.80;19.05;;;;;;;;;;5101487;28;20043;-67
2022/12/22 07:31:52;;;;;;;204.45;17.60;;;;;;;;;;5098469;28;20462;-67
2022/12/22 07:34:19;;;;;;;219.00;19.63;;;;;;;;;;5098801;28;20053;-67
2022/12/22 07:36:45;;;;;;;201.63;16.95;;;;;;;;;;5098289;28;20039;-67
2022/12/22 07:39:12;;;;;;;179.85;17.25;;;;;;;;;;5098933;28;20032;-67
2022/12/22 07:44:23;;;;;;;192.15;15.82;;;;;;;;;;5086916;28;20039;-67
2022/12/22 07:46:50;;;;;;;150.13;13.88;;;;;;;;;;5105802;28;20119;-66
2022/12/22 07:52:01;;;;;;;167.68;14.77;;;;;;;;;;5087107;28;20206;-67
2022/12/22 07:54:27;;;;;;;113.60;12.13;;;;;;;;;;5108763;28;21405;-67
2022/12/22 07:56:53;;;;;;;111.10;11.88;;;;;;;;;;5108358;28;20051;-67
2022/12/22 07:59:20;;;;;;;95.80;11.25;;;;;;;;;;5108699;28;20044;-75
2022/12/22 08:01:46;;;;;;;129.85;12.48;;;;;;;;;;5090012;28;20044;-67
2022/12/22 08:04:13;;;;;;;145.13;13.23;;;;;;;;;;5107592;28;20062;-67
2022/12/22 08:06:39;;;;;;;86.13;10.80;;;;;;;;;;5091292;28;20406;-66
2022/12/22 08:09:06;;;;;;;64.97;8.82;;;;;;;;;;5089366;28;20051;-65
2022/12/22 08:11:33;;;;;;;86.03;9.55;;;;;;;;;;5088947;28;20035;-66
2022/12/22 08:13:59;;;;;;;103.70;9.95;;;;;;;;;;5108802;28;20043;-66
2022/12/22 08:16:26;;;;;;;72.32;9.48;;;;;;;;;;5108846;28;20051;-66
2022/12/22 08:18:52;;;;;;;80.22;8.15;;;;;;;;;;5107070;28;20050;-66
2022/12/22 08:21:18;;;;;;;73.35;9.68;;;;;;;;;;5084500;28;20055;-66
2022/12/22 08:23:44;;;;;;;66.03;8.73;;;;;;;;;;5102648;28;20032;-66
2022/12/22 08:26:14;;;;;;;48.45;7.53;;;;;;;;;;5104435;28;20048;-66
2022/12/22 08:28:44;;;;;;;65.25;7.53;;;;;;;;;;5103268;28;20051;-66
2022/12/22 08:31:10;;;;;;;74.90;7.90;;;;;;;;;;5105345;28;20154;-66
2022/12/22 08:33:37;;;;;;;77.32;8.68;;;;;;;;;;5104202;28;20040;-66
2022/12/22 08:36:03;;;;;;;55.40;8.32;;;;;;;;;;5104366;28;20118;-66
2022/12/22 08:38:30;;;;;;;54.35;7.75;;;;;;;;;;5106571;28;20042;-66
2022/12/22 08:40:56;;;;;;;70.88;7.60;;;;;;;;;;5086403;28;20040;-66
2022/12/22 08:43:23;;;;;;;68.57;8.88;;;;;;;;;;5103963;28;20490;-66
2022/12/22 08:45:50;;;;;;;54.13;8.07;;;;;;;;;;5106750;28;20047;-66
2022/12/22 08:48:16;;;;;;;81.95;8.82;;;;;;;;;;5107995;28;20050;-66
2022/12/22 08:50:42;;;;;;;68.20;9.15;;;;;;;;;;5106727;28;20047;-66
2022/12/22 08:53:08;;;;;;;75.40;9.82;;;;;;;;;;5087850;28;20452;-66
2022/12/22 08:55:35;;;;;;;67.15;9.32;;;;;;;;;;5108523;28;20119;-66
2022/12/22 08:58:01;;;;;;;59.88;9.18;;;;;;;;;;5108292;28;20036;-66
2022/12/22 09:00:27;;;;;;;60.45;9.15;;;;;;;;;;5089165;28;20510;-66
2022/12/22 09:02:53;;;;;;;60.28;9.05;;;;;;;;;;5091434;28;20092;-66
2022/12/22 09:05:19;;;;;;;114.97;11.38;;;;;;;;;;5107340;28;20043;-64
2022/12/22 09:07:47;;;;;;;65.75;9.40;;;;;;;;;;5084459;28;20534;-66
2022/12/22 09:10:13;;;;;;;86.65;10.93;;;;;;;;;;5105822;28;20048;-66
2022/12/22 09:12:39;;;;;;;102.45;13.80;;;;;;;;;;5104901;28;20094;-66
2022/12/22 09:15:07;;;;;;;81.72;11.38;;;;;;;;;;5082922;28;20039;-66
2022/12/22 09:17:35;;;;;;;63.08;10.00;;;;;;;;;;5100343;28;20051;-66
2022/12/22 09:20:01;;;;;;;54.75;9.35;;;;;;;;;;5104933;28;20100;-66
2022/12/22 09:22:27;;;;;;;37.75;8.60;;;;;;;;;;5085087;28;20113;-66
2022/12/22 09:24:54;;;;;;;41.47;10.23;;;;;;;;;;5086862;28;20481;-66
2022/12/22 09:27:20;;;;;;;48.78;10.45;;;;;;;;;;5106742;28;20398;-66
2022/12/22 09:29:46;;;;;;;37.28;9.50;;;;;;;;;;5085061;28;20394;-66
2022/12/22 09:32:12;;;;;;;52.80;10.30;;;;;;;;;;5087025;28;20039;-66
2022/12/22 09:34:38;;;;;;;34.28;11.00;;;;;;;;;;5105865;28;20036;-66
2022/12/22 09:37:05;;;;;;;31.63;10.27;;;;;;;;;;5103518;28;20126;-66
2022/12/22 09:39:31;;;;;;;32.45;10.13;;;;;;;;;;5084594;28;20555;-66
2022/12/22 09:41:58;;;;;;;29.90;10.07;;;;;;;;;;5104505;28;20048;-66
2022/12/22 09:44:31;;;;;;;32.65;9.77;;;;;;;;;;5090430;28;20467;-66
2022/12/22 09:46:59;;;;;;;34.87;10.87;;;;;;;;;;5108501;28;20046;-66
2022/12/22 09:49:25;;;;;;;35.55;12.27;;;;;;;;;;5106373;28;20048;-66
2022/12/22 09:51:54;;;;;;;57.97;14.68;;;;;;;;;;5107269;28;20118;-66
2022/12/22 09:54:21;;;;;;;36.25;11.20;;;;;;;;;;5106308;28;20444;-66
2022/12/22 09:56:47;;;;;;;28.52;10.80;;;;;;;;;;5104709;28;20433;-66
2022/12/22 09:59:15;;;;;;;22.15;9.35;;;;;;;;;;5108196;28;20517;-66
2022/12/22 10:02:00;;;;;;;22.83;10.43;;;;;;;;;;5088303;28;20488;-66
2022/12/22 10:04:45;;;;;;;28.00;9.55;;;;;;;;;;5106669;28;20035;-66
2022/12/22 10:07:30;;;;;;;27.20;8.55;;;;;;;;;;5085735;28;20576;-66
2022/12/22 10:09:57;;;;;;;27.17;9.05;;;;;;;;;;5107342;28;20062;-66
2022/12/22 10:12:24;;;;;;;20.48;8.15;;;;;;;;;;5107684;28;20036;-66
2022/12/22 10:14:51;;;;;;;20.83;7.13;;;;;;;;;;5107555;28;20052;-68
2022/12/22 10:17:21;;;;;;;17.15;6.30;;;;;;;;;;5089629;28;20445;-68
2022/12/22 10:19:48;;;;;;;16.08;6.47;;;;;;;;;;5089604;28;20052;-68
2022/12/22 10:22:20;;;;;;;31.42;7.85;;;;;;;;;;5106255;28;20058;-68
2022/12/22 10:24:46;;;;;;;20.58;5.95;;;;;;;;;;5104399;28;20399;-68
2022/12/22 10:27:13;;;;;;;19.17;6.10;;;;;;;;;;5106850;28;20039;-68
2022/12/22 10:29:39;;;;;;;22.90;4.70;;;;;;;;;;5107076;28;20039;-68
2022/12/22 10:32:11;;;;;;;25.95;5.72;;;;;;;;;;5103832;28;20126;-68
2022/12/22 10:34:43;;;;;;;13.30;5.68;;;;;;;;;;5104062;28;20031;-69
2022/12/22 10:37:09;;;;;;;20.35;4.63;;;;;;;;;;5105998;28;20558;-68
2022/12/22 10:39:37;;;;;;;21.50;5.90;;;;;;;;;;5108088;28;20340;-68
2022/12/22 10:42:12;;;;;;;19.95;4.85;;;;;;;;;;5106980;28;20055;-68
2022/12/22 10:44:38;;;;;;;19.35;5.40;;;;;;;;;;5088610;28;20039;-68
2022/12/22 10:47:12;;;;;;;20.67;5.90;;;;;;;;;;5104917;28;20062;-68
2022/12/22 10:49:39;;;;;;;14.52;4.93;;;;;;;;;;5087336;28;20039;-68
2022/12/22 10:52:14;;;;;;;15.23;4.90;;;;;;;;;;5106460;28;20035;-68
2022/12/22 10:54:41;;;;;;;16.48;4.72;;;;;;;;;;5089405;28;20123;-67
2022/12/22 10:57:13;;;;;;;18.73;5.22;;;;;;;;;;5107930;28;20055;-68
2022/12/22 11:00:01;;;;;;;14.40;5.53;;;;;;;;;;5106410;28;20135;-68
2022/12/22 11:02:36;;;;;;;21.63;5.88;;;;;;;;;;5107618;28;20043;-68
2022/12/22 11:05:05;;;;;;;21.92;4.90;;;;;;;;;;5086943;28;20414;-68
2022/12/22 11:07:33;;;;;;;18.08;5.35;;;;;;;;;;5089069;28;20040;-68
2022/12/22 11:09:59;;;;;;;16.38;5.05;;;;;;;;;;5087799;28;20047;-68
2022/12/22 11:12:31;;;;;;;15.77;4.55;;;;;;;;;;5104852;28;20490;-67
2022/12/22 11:15:02;;;;;;;14.55;3.78;;;;;;;;;;5087563;28;20047;-67
2022/12/22 11:17:33;;;;;;;24.85;6.10;;;;;;;;;;5104939;28;20070;-67
2022/12/22 11:20:07;;;;;;;15.20;4.25;;;;;;;;;;5089979;28;20142;-67
2022/12/22 11:22:37;;;;;;;20.33;4.03;;;;;;;;;;5102379;28;20480;-67
2022/12/22 11:25:23;;;;;;;14.68;3.65;;;;;;;;;;5106335;28;20036;-67
2022/12/22 11:28:02;;;;;;;26.00;4.82;;;;;;;;;;5102841;28;20050;-66
2022/12/22 11:30:36;;;;;;;20.27;4.70;;;;;;;;;;5087875;28;20036;-67
2022/12/22 11:33:12;;;;;;;10.77;3.78;;;;;;;;;;5088080;28;20050;-67
2022/12/22 11:35:41;;;;;;;15.93;4.30;;;;;;;;;;5102529;28;20043;-67
2022/12/22 11:38:16;;;;;;;12.82;4.35;;;;;;;;;;5110450;28;20066;-67
2022/12/22 11:40:47;;;;;;;19.27;3.83;;;;;;;;;;5106599;28;20506;-68
2022/12/22 11:43:21;;;;;;;15.95;3.85;;;;;;;;;;5100343;28;20051;-67
2022/12/22 11:45:55;;;;;;;13.50;3.90;;;;;;;;;;5107198;28;20389;-67
2022/12/22 11:48:28;;;;;;;13.60;3.85;;;;;;;;;;5106233;28;20061;-67
2022/12/22 11:50:56;;;;;;;18.27;4.10;;;;;;;;;;5094779;28;20043;-67
2022/12/22 11:53:42;;;;;;;13.27;4.20;;;;;;;;;;5087574;28;20395;-67
2022/12/22 11:56:27;;;;;;;16.00;3.20;;;;;;;;;;5103332;28;20573;-67
2022/12/22 11:58:54;;;;;;;17.42;2.92;;;;;;;;;;5104929;28;20071;-67
2022/12/22 12:01:34;;;;;;;15.93;4.10;;;;;;;;;;5105958;28;20040;-67
2022/12/22 12:04:25;;;;;;;12.98;2.40;;;;;;;;;;5101981;28;20074;-67
2022/12/22 12:06:55;;;;;;;13.68;2.85;;;;;;;;;;5103968;28;20048;-67
2022/12/22 12:09:39;;;;;;;14.60;3.97;;;;;;;;;;5088174;28;20063;-67
2022/12/22 12:12:14;;;;;;;22.63;3.97;;;;;;;;;;5087485;28;20124;-67
2022/12/22 12:14:53;;;;;;;20.20;4.15;;;;;;;;;;5084097;28;20173;-68
2022/12/22 12:17:33;;;;;;;21.75;4.50;;;;;;;;;;5104084;28;20067;-67
2022/12/22 12:20:07;;;;;;;21.17;4.18;;;;;;;;;;5103636;28;20029;-67
2022/12/22 12:22:41;;;;;;;22.17;4.05;;;;;;;;;;5086762;28;20054;-67
2022/12/22 12:25:20;;;;;;;14.93;3.50;;;;;;;;;;5103807;28;20130;-67
2022/12/22 12:27:56;;;;;;;17.88;3.92;;;;;;;;;;5104665;28;20174;-66
2022/12/22 12:30:22;;;;;;;18.50;3.72;;;;;;;;;;5104143;28;20043;-67
2022/12/22 12:32:52;;;;;;;20.33;4.13;;;;;;;;;;5103559;28;20096;-67
2022/12/22 12:35:30;;;;;;;19.95;3.65;;;;;;;;;;5103877;28;20066;-67
2022/12/22 12:37:59;;;;;;;22.38;3.58;;;;;;;;;;5084740;28;20059;-67
2022/12/22 12:40:32;;;;;;;20.92;4.38;;;;;;;;;;5085456;28;20044;-66
2022/12/22 12:42:59;;;;;;;17.48;4.30;;;;;;;;;;5085260;28;20067;-66
2022/12/22 12:45:44;;;;;;;28.25;5.03;;;;;;;;;;5085903;28;20067;-67
2022/12/22 12:48:20;;;;;;;18.77;3.85;;;;;;;;;;5081651;28;20078;-67
2022/12/22 12:50:47;;;;;;;18.27;4.15;;;;;;;;;;5082857;28;20064;-66
2022/12/22 12:53:13;;;;;;;18.85;3.38;;;;;;;;;;5081609;28;20040;-66
2022/12/22 12:55:41;;;;;;;19.88;4.07;;;;;;;;;;5083456;28;20048;-66
2022/12/22 12:58:10;;;;;;;21.55;4.00;;;;;;;;;;5081830;28;20507;-67
2022/12/22 13:00:36;;;;;;;21.88;3.83;;;;;;;;;;5080973;28;20044;-66
2022/12/22 13:03:03;;;;;;;20.17;4.32;;;;;;;;;;5084897;28;20388;-66
2022/12/22 13:05:35;;;;;;;20.10;3.78;;;;;;;;;;5083856;28;20055;-66
2022/12/22 13:08:14;;;;;;;24.35;4.07;;;;;;;;;;5065006;28;21449;-66
2022/12/22 13:10:40;;;;;;;17.10;3.10;;;;;;;;;;5078993;28;20099;-66
2022/12/22 13:13:10;;;;;;;15.32;3.20;;;;;;;;;;5082494;28;20478;-67
2022/12/22 13:15:37;;;;;;;14.18;3.22;;;;;;;;;;5081909;28;20438;-66
2022/12/22 13:18:08;;;;;;;18.92;4.30;;;;;;;;;;5087378;28;20065;-71
2022/12/22 13:20:36;;;;;;;20.45;4.32;;;;;;;;;;5086839;28;20040;-67
2022/12/22 13:23:04;;;;;;;17.08;3.10;;;;;;;;;;5086723;28;20082;-66
2022/12/22 13:25:40;;;;;;;16.48;2.88;;;;;;;;;;5084865;28;21957;-66
2022/12/22 13:28:10;;;;;;;23.73;3.08;;;;;;;;;;5087147;28;20086;-67
2022/12/22 13:30:36;;;;;;;17.85;3.20;;;;;;;;;;5087053;28;20036;-64
2022/12/22 13:33:03;;;;;;;17.65;2.85;;;;;;;;;;5086516;28;20483;-66
2022/12/22 13:35:45;;;;;;;19.65;3.83;;;;;;;;;;5081707;28;20081;-66
2022/12/22 13:38:30;;;;;;;16.35;3.80;;;;;;;;;;5086782;28;20047;-66
2022/12/22 13:41:04;;;;;;;17.55;2.95;;;;;;;;;;5087022;28;20482;-66
2022/12/22 13:43:31;;;;;;;19.38;3.28;;;;;;;;;;5105331;28;20048;-66
2022/12/22 13:45:58;;;;;;;17.90;3.80;;;;;;;;;;5107637;28;20107;-66
2022/12/22 13:48:29;;;;;;;13.48;3.13;;;;;;;;;;5105114;28;20051;-66
2022/12/22 13:50:58;;;;;;;20.80;4.03;;;;;;;;;;5106549;28;20440;-66
2022/12/22 13:53:29;;;;;;;14.43;3.45;;;;;;;;;;5090583;28;20482;-66
2022/12/22 13:55:56;;;;;;;11.05;2.40;;;;;;;;;;5105595;28;20043;-66
2022/12/22 13:58:28;;;;;;;14.80;2.50;;;;;;;;;;5088740;28;20142;-67
2022/12/22 14:01:01;;;;;;;15.95;2.72;;;;;;;;;;5105240;28;20080;-66
2022/12/22 14:03:27;;;;;;;14.52;2.63;;;;;;;;;;5086524;28;20112;-73
2022/12/22 14:05:53;;;;;;;17.95;2.65;;;;;;;;;;5106651;28;20451;-66
2022/12/22 14:08:23;;;;;;;13.98;2.53;;;;;;;;;;5089183;28;20047;-66
2022/12/22 14:10:50;;;;;;;15.93;2.90;;;;;;;;;;5103793;28;20042;-66
2022/12/22 14:13:18;;;;;;;9.82;2.05;;;;;;;;;;5105623;28;20408;-66
2022/12/22 14:15:44;;;;;;;16.13;3.45;;;;;;;;;;5084068;28;21703;-66
2022/12/22 14:18:15;;;;;;;21.85;2.97;;;;;;;;;;5086646;28;20063;-66
2022/12/22 14:20:42;;;;;;;15.02;2.35;;;;;;;;;;5089069;28;20062;-66
2022/12/22 14:23:13;;;;;;;18.88;2.83;;;;;;;;;;5083682;28;20592;-67
2022/12/22 14:25:41;;;;;;;15.18;3.05;;;;;;;;;;5082002;28;21124;-66
2022/12/22 14:28:15;;;;;;;13.85;3.10;;;;;;;;;;5105449;28;20048;-67
2022/12/22 14:30:41;;;;;;;;;;;;;;;;;;5106776;28;20051;-67
2022/12/22 14:33:16;;;;;;;16.48;2.75;;;;;;;;;;5107036;28;19926;-67
2022/12/22 14:35:42;;;;;;;16.83;2.80;;;;;;;;;;5066741;28;20141;-67
2022/12/22 14:38:16;;;;;;;20.20;2.40;;;;;;;;;;5102304;28;20062;-66
2022/12/22 14:40:43;;;;;;;19.73;2.90;;;;;;;;;;5084125;28;20050;-66
2022/12/22 14:43:18;;;;;;;10.90;2.50;;;;;;;;;;5098149;28;20572;-67
2022/12/22 14:45:45;;;;;;;12.55;2.58;;;;;;;;;;5098306;28;20130;-66
2022/12/22 14:48:18;;;;;;;25.02;3.45;;;;;;;;;;5100218;28;20510;-66
2022/12/22 14:50:51;;;;;;;16.58;2.65;;;;;;;;;;5099437;28;20150;-67
2022/12/22 14:53:23;;;;;;;13.25;2.28;;;;;;;;;;5101503;28;20046;-66
2022/12/22 14:55:50;;;;;;;15.48;2.97;;;;;;;;;;5086040;28;20047;-66
2022/12/22 14:58:21;;;;;;;13.60;2.22;;;;;;;;;;5105045;28;20122;-67
2022/12/22 15:00:48;;;;;;;20.30;3.35;;;;;;;;;;5084080;28;20055;-66
2022/12/22 15:03:33;;;;;;;11.68;3.03;;;;;;;;;;5106076;28;20047;-66
2022/12/22 15:06:17;;;;;;;14.77;2.88;;;;;;;;;;5104967;28;20048;-66
2022/12/22 15:08:43;;;;;;;13.40;3.28;;;;;;;;;;5102414;28;20468;-67
2022/12/22 15:11:11;;;;;;;11.70;2.90;;;;;;;;;;5104376;28;20106;-67
2022/12/22 15:13:37;;;;;;;17.58;3.22;;;;;;;;;;5086514;28;20047;-67
2022/12/22 15:16:04;;;;;;;12.55;3.50;;;;;;;;;;5088155;28;20051;-67
2022/12/22 15:18:31;;;;;;;13.18;3.75;;;;;;;;;;5084935;28;20547;-67
2022/12/22 15:20:57;;;;;;;10.95;3.33;;;;;;;;;;5105692;28;20048;-67
2022/12/22 15:23:23;;;;;;;7.35;2.70;;;;;;;;;;5105822;28;20442;-67
2022/12/22 15:25:50;;;;;;;17.58;3.60;;;;;;;;;;5105709;28;20042;-67
2022/12/22 15:28:16;;;;;;;13.15;3.08;;;;;;;;;;5104880;28;20035;-67
2022/12/22 15:30:42;;;;;;;13.25;3.38;;;;;;;;;;5099932;28;20039;-67
2022/12/22 15:33:14;;;;;;;17.10;3.97;;;;;;;;;;5085488;28;20035;-67
2022/12/22 15:35:41;;;;;;;17.48;4.32;;;;;;;;;;5084712;28;20055;-66
2022/12/22 15:38:13;;;;;;;17.23;7.03;;;;;;;;;;5082842;28;20138;-66
2022/12/22 15:40:39;;;;;;;24.65;9.60;;;;;;;;;;5103270;28;20054;-66
2022/12/22 15:43:05;;;;;;;24.83;11.57;;;;;;;;;;5090351;28;20134;-67
2022/12/22 15:45:31;;;;;;;23.52;13.95;;;;;;;;;;5064569;28;20048;-66
2022/12/22 15:47:59;;;;;;;27.20;16.15;;;;;;;;;;5048834;28;20052;-69
2022/12/22 15:50:26;;;;;;;34.05;17.83;;;;;;;;;;5063697;28;20052;-68
2022/12/22 15:52:54;;;;;;;29.08;16.90;;;;;;;;;;5066890;28;20059;-69
2022/12/22 15:55:20;;;;;;;33.13;16.90;;;;;;;;;;5064528;28;20052;-70
2022/12/22 15:57:50;;;;;;;31.45;16.80;;;;;;;;;;5078754;28;21365;-70
2022/12/22 16:00:17;;;;;;;28.13;16.40;;;;;;;;;;5059925;28;20113;-71
2022/12/22 16:02:43;;;;;;;29.50;15.70;;;;;;;;;;5060208;28;20456;-71
2022/12/22 16:05:10;;;;;;;31.40;15.00;;;;;;;;;;5084645;28;20101;-70
2022/12/22 16:07:37;;;;;;;28.17;15.15;;;;;;;;;;5078914;28;20066;-70
2022/12/22 16:10:04;;;;;;;29.92;15.50;;;;;;;;;;5061671;28;20043;-71
2022/12/22 16:12:31;;;;;;;26.05;14.73;;;;;;;;;;5080466;28;20050;-70
2022/12/22 16:14:58;;;;;;;33.45;14.88;;;;;;;;;;5078560;28;20093;-70
2022/12/22 16:17:25;;;;;;;28.17;14.27;;;;;;;;;;5062994;28;20771;-70
2022/12/22 16:19:51;;;;;;;28.08;14.43;;;;;;;;;;5083432;28;20055;-70
2022/12/22 16:22:19;;;;;;;30.10;15.25;;;;;;;;;;5083656;28;20040;-70
2022/12/22 16:24:47;;;;;;;30.20;16.00;;;;;;;;;;5065161;28;20040;-70
2022/12/22 16:27:13;;;;;;;29.20;15.90;;;;;;;;;;5064433;28;20048;-70
2022/12/22 16:29:43;;;;;;;26.05;16.25;;;;;;;;;;5082093;28;20093;-68
2022/12/22 16:32:14;;;;;;;23.92;15.80;;;;;;;;;;5081743;28;20036;-70
2022/12/22 16:34:40;;;;;;;32.10;18.15;;;;;;;;;;5064638;28;20051;-69
2022/12/22 16:37:06;;;;;;;29.38;17.48;;;;;;;;;;5066218;28;20567;-68
2022/12/22 16:39:33;;;;;;;31.33;18.75;;;;;;;;;;5083638;28;20038;-69
2022/12/22 16:41:59;;;;;;;26.55;17.88;;;;;;;;;;5089067;28;20055;-69
2022/12/22 16:44:25;;;;;;;27.27;18.08;;;;;;;;;;5102259;28;20520;-69
2022/12/22 16:46:52;;;;;;;30.45;20.42;;;;;;;;;;5082917;28;20127;-68
2022/12/22 16:49:19;;;;;;;31.10;20.02;;;;;;;;;;5099277;28;20040;-67
2022/12/22 16:51:49;;;;;;;31.45;20.65;;;;;;;;;;5100867;28;20111;-67
2022/12/22 16:54:15;;;;;;;32.78;21.08;;;;;;;;;;5104564;28;20039;-66
2022/12/22 16:56:45;;;;;;;34.10;21.05;;;;;;;;;;5105502;28;20093;-67
2022/12/22 16:59:12;;;;;;;33.40;20.77;;;;;;;;;;5084762;28;20043;-67
2022/12/22 17:01:40;;;;;;;36.92;20.88;;;;;;;;;;5103189;28;20048;-69
2022/12/22 17:04:12;;;;;;;35.08;21.80;;;;;;;;;;5102646;28;20035;-67
2022/12/22 17:06:39;;;;;;;37.13;22.00;;;;;;;;;;5080877;28;20055;-67
2022/12/22 17:09:09;;;;;;;36.42;20.98;;;;;;;;;;5081610;28;20079;-67
2022/12/22 17:11:36;;;;;;;38.80;22.10;;;;;;;;;;5103021;28;20127;-67
2022/12/22 17:14:07;;;;;;;37.58;22.02;;;;;;;;;;5101441;28;20111;-67
2022/12/22 17:16:33;;;;;;;44.53;23.45;;;;;;;;;;5104584;28;20036;-67
2022/12/22 17:19:00;;;;;;;41.72;22.95;;;;;;;;;;5086752;28;20043;-68
2022/12/22 17:21:28;;;;;;;43.33;23.77;;;;;;;;;;5083847;28;20743;-68
2022/12/22 17:23:54;;;;;;;42.72;25.02;;;;;;;;;;5102931;28;20171;-68
2022/12/22 17:26:22;;;;;;;46.22;25.23;;;;;;;;;;5099499;28;20694;-66
2022/12/22 17:28:49;;;;;;;45.40;24.48;;;;;;;;;;5099413;28;20055;-68
2022/12/22 17:31:17;;;;;;;48.65;26.70;;;;;;;;;;5100125;28;20506;-67
2022/12/22 17:33:44;;;;;;;44.70;25.23;;;;;;;;;;5099122;28;20204;-67
2022/12/22 17:36:30;;;;;;;50.42;26.17;;;;;;;;;;5100068;28;20048;-67
2022/12/22 17:38:56;;;;;;;46.25;26.83;;;;;;;;;;5080820;28;20562;-67
2022/12/22 17:41:22;;;;;;;53.30;26.45;;;;;;;;;;5095635;28;20415;-67
2022/12/22 17:43:49;;;;;;;50.67;27.75;;;;;;;;;;5081764;28;20039;-68
2022/12/22 17:46:17;;;;;;;54.63;28.05;;;;;;;;;;5079518;28;20043;-68
2022/12/22 17:48:43;;;;;;;51.38;26.63;;;;;;;;;;5098277;28;20039;-67
2022/12/22 17:51:17;;;;;;;59.42;29.27;;;;;;;;;;5096841;28;20043;-68
2022/12/22 17:53:43;;;;;;;;;;;;;;;;;;5102868;28;20069;-68
2022/12/22 17:56:17;;;;;;;58.20;28.92;;;;;;;;;;5101071;28;19999;-67
2022/12/22 17:58:44;;;;;;;65.45;31.00;;;;;;;;;;5082239;28;20135;-67
2022/12/22 18:01:18;;;;;;;67.40;31.35;;;;;;;;;;5102255;28;20067;-67
2022/12/22 18:03:44;;;;;;;61.15;32.45;;;;;;;;;;5103751;28;20084;-66
2022/12/22 18:06:10;;;;;;;65.10;31.98;;;;;;;;;;5097673;28;20076;-67
2022/12/22 18:08:36;;;;;;;69.40;32.80;;;;;;;;;;5081286;28;20451;-67